sensor_id;sensor_type;location;lat;lon;timestamp;temperature;humidity
14248;DHT22;7208;49.826;6.004;2023-02-18T00:02:09;9.20;99.90
14248;DHT22;7208;49.826;6.004;2023-02-18T00:04:34;9.10;99.90
14248;DHT22;7208;49.826;6.004;2023-02-18T00:07:00;9.10;99.90
14248;DHT22;7208;49.826;6.004;2023-02-18T00:09:26;9.10;99.90
14248;DHT22;7208;49.826;6.004;2023-02-18T00:11:52;9.10;99.90
14248;DHT22;7208;49.826;6.004;2023-02-18T00:14:18;9.10;99.90
14248;DHT22;7208;49.826;6.004;2023-02-18T00:16:45;9.10;99.90
14248;DHT22;7208;49.826;6.004;2023-02-18T00:19:13;9.10;99.90
14248;DHT22;7208;49.826;6.004;2023-02-18T00:21:40;9.10;99.90
14248;DHT22;7208;49.826;6.004;2023-02-18T00:24:07;9.10;99.90
14248;DHT22;7208;49.826;6.004;2023-02-18T00:26:34;9.00;99.90
14248;DHT22;7208;49.826;6.004;2023-02-18T00:29:00;9.00;99.90
14248;DHT22;7208;49.826;6.004;2023-02-18T00:31:28;9.00;99.90
14248;DHT22;7208;49.826;6.004;2023-02-18T00:33:56;9.00;99.90
14248;DHT22;7208;49.826;6.004;2023-02-18T00:36:22;9.00;99.90
14248;DHT22;7208;49.826;6.004;2023-02-18T00:38:51;9.00;99.90
14248;DHT22;7208;49.826;6.004;2023-02-18T00:41:18;9.00;99.90
14248;DHT22;7208;49.826;6.004;2023-02-18T00:43:44;9.00;99.90
14248;DHT22;7208;49.826;6.004;2023-02-18T00:46:10;9.00;99.90
14248;DHT22;7208;49.826;6.004;2023-02-18T00:48:35;9.00;99.90
14248;DHT22;7208;49.826;6.004;2023-02-18T00:51:03;9.00;99.90
14248;DHT22;7208;49.826;6.004;2023-02-18T00:53:29;9.00;99.90
14248;DHT22;7208;49.826;6.004;2023-02-18T00:55:54;9.00;99.90
14248;DHT22;7208;49.826;6.004;2023-02-18T00:58:20;9.00;99.90
14248;DHT22;7208;49.826;6.004;2023-02-18T01:00:46;9.00;99.90
14248;DHT22;7208;49.826;6.004;2023-02-18T01:03:13;9.00;99.90
14248;DHT22;7208;49.826;6.004;2023-02-18T01:05:39;9.20;99.90
14248;DHT22;7208;49.826;6.004;2023-02-18T01:08:06;9.00;99.90
14248;DHT22;7208;49.826;6.004;2023-02-18T01:10:33;9.20;99.90
14248;DHT22;7208;49.826;6.004;2023-02-18T01:12:59;8.90;99.90
14248;DHT22;7208;49.826;6.004;2023-02-18T01:15:25;8.90;99.90
14248;DHT22;7208;49.826;6.004;2023-02-18T01:17:51;8.90;99.90
14248;DHT22;7208;49.826;6.004;2023-02-18T01:20:18;8.90;99.90
14248;DHT22;7208;49.826;6.004;2023-02-18T01:22:44;8.90;99.90
14248;DHT22;7208;49.826;6.004;2023-02-18T01:25:10;8.90;99.90
14248;DHT22;7208;49.826;6.004;2023-02-18T01:27:36;8.90;99.90
14248;DHT22;7208;49.826;6.004;2023-02-18T01:30:08;8.90;99.90
14248;DHT22;7208;49.826;6.004;2023-02-18T01:32:34;8.90;99.90
14248;DHT22;7208;49.826;6.004;2023-02-18T01:35:02;8.90;99.90
14248;DHT22;7208;49.826;6.004;2023-02-18T01:37:28;8.90;99.90
14248;DHT22;7208;49.826;6.004;2023-02-18T01:39:54;8.90;99.90
14248;DHT22;7208;49.826;6.004;2023-02-18T01:42:23;8.90;99.90
14248;DHT22;7208;49.826;6.004;2023-02-18T01:44:49;8.90;99.90
14248;DHT22;7208;49.826;6.004;2023-02-18T01:47:16;9.00;99.90
14248;DHT22;7208;49.826;6.004;2023-02-18T01:49:42;9.00;99.90
14248;DHT22;7208;49.826;6.004;2023-02-18T01:52:30;9.00;99.90
14248;DHT22;7208;49.826;6.004;2023-02-18T01:54:58;9.00;99.90
14248;DHT22;7208;49.826;6.004;2023-02-18T01:57:31;9.00;99.90
14248;DHT22;7208;49.826;6.004;2023-02-18T02:00:05;9.10;99.90
14248;DHT22;7208;49.826;6.004;2023-02-18T02:02:34;9.00;99.90
14248;DHT22;7208;49.826;6.004;2023-02-18T02:05:02;9.00;99.90
14248;DHT22;7208;49.826;6.004;2023-02-18T02:07:28;9.10;99.90
14248;DHT22;7208;49.826;6.004;2023-02-18T02:09:56;9.00;99.90
14248;DHT22;7208;49.826;6.004;2023-02-18T02:21:17;8.90;99.90
14248;DHT22;7208;49.826;6.004;2023-02-18T02:24:04;8.90;99.90
14248;DHT22;7208;49.826;6.004;2023-02-18T02:29:34;8.90;99.90
14248;DHT22;7208;49.826;6.004;2023-02-18T02:40:22;9.00;99.90
14248;DHT22;7208;49.826;6.004;2023-02-18T02:46:30;9.00;99.90
14248;DHT22;7208;49.826;6.004;2023-02-18T02:49:24;9.00;99.90
14248;DHT22;7208;49.826;6.004;2023-02-18T02:52:07;8.90;99.90
14248;DHT22;7208;49.826;6.004;2023-02-18T02:54:34;8.90;99.90
14248;DHT22;7208;49.826;6.004;2023-02-18T03:00:00;8.90;99.90
14248;DHT22;7208;49.826;6.004;2023-02-18T03:10:47;8.90;99.90
14248;DHT22;7208;49.826;6.004;2023-02-18T03:24:28;8.70;99.90
14248;DHT22;7208;49.826;6.004;2023-02-18T03:27:03;8.70;99.90
14248;DHT22;7208;49.826;6.004;2023-02-18T03:29:30;8.70;99.90
14248;DHT22;7208;49.826;6.004;2023-02-18T03:32:00;8.70;99.90
14248;DHT22;7208;49.826;6.004;2023-02-18T03:34:33;8.70;99.90
14248;DHT22;7208;49.826;6.004;2023-02-18T03:37:00;8.70;99.90
14248;DHT22;7208;49.826;6.004;2023-02-18T03:39:30;8.70;99.90
14248;DHT22;7208;49.826;6.004;2023-02-18T03:41:57;8.70;99.90
14248;DHT22;7208;49.826;6.004;2023-02-18T03:44:23;8.70;99.90
14248;DHT22;7208;49.826;6.004;2023-02-18T03:46:49;8.70;99.90
14248;DHT22;7208;49.826;6.004;2023-02-18T03:49:15;8.60;99.90
14248;DHT22;7208;49.826;6.004;2023-02-18T03:51:41;8.70;99.90
14248;DHT22;7208;49.826;6.004;2023-02-18T03:54:07;8.60;99.90
14248;DHT22;7208;49.826;6.004;2023-02-18T03:56:34;8.60;99.90
14248;DHT22;7208;49.826;6.004;2023-02-18T03:59:00;8.50;99.90
14248;DHT22;7208;49.826;6.004;2023-02-18T04:01:26;8.50;99.90
14248;DHT22;7208;49.826;6.004;2023-02-18T04:03:52;8.50;99.90
14248;DHT22;7208;49.826;6.004;2023-02-18T04:06:20;8.50;99.90
14248;DHT22;7208;49.826;6.004;2023-02-18T04:08:46;8.50;99.90
14248;DHT22;7208;49.826;6.004;2023-02-18T04:11:12;8.50;99.90
14248;DHT22;7208;49.826;6.004;2023-02-18T04:13:38;8.40;99.90
14248;DHT22;7208;49.826;6.004;2023-02-18T04:16:04;8.40;99.90
14248;DHT22;7208;49.826;6.004;2023-02-18T04:18:30;8.40;99.90
14248;DHT22;7208;49.826;6.004;2023-02-18T04:20:55;8.40;99.90
14248;DHT22;7208;49.826;6.004;2023-02-18T04:23:21;8.40;99.90
14248;DHT22;7208;49.826;6.004;2023-02-18T04:25:47;8.30;99.90
14248;DHT22;7208;49.826;6.004;2023-02-18T04:28:14;8.30;99.90
14248;DHT22;7208;49.826;6.004;2023-02-18T04:30:42;8.30;99.90
14248;DHT22;7208;49.826;6.004;2023-02-18T04:33:08;8.30;99.90
14248;DHT22;7208;49.826;6.004;2023-02-18T04:35:34;8.30;99.90
14248;DHT22;7208;49.826;6.004;2023-02-18T04:38:01;8.30;99.90
14248;DHT22;7208;49.826;6.004;2023-02-18T04:40:27;8.30;99.90
14248;DHT22;7208;49.826;6.004;2023-02-18T04:42:56;8.30;99.90
14248;DHT22;7208;49.826;6.004;2023-02-18T04:45:23;8.30;99.90
14248;DHT22;7208;49.826;6.004;2023-02-18T04:47:49;8.20;99.90
14248;DHT22;7208;49.826;6.004;2023-02-18T04:50:14;8.20;99.90
14248;DHT22;7208;49.826;6.004;2023-02-18T04:52:40;8.20;99.90
14248;DHT22;7208;49.826;6.004;2023-02-18T04:55:06;8.20;99.90
14248;DHT22;7208;49.826;6.004;2023-02-18T04:57:32;8.20;99.90
14248;DHT22;7208;49.826;6.004;2023-02-18T04:59:58;8.20;99.90
14248;DHT22;7208;49.826;6.004;2023-02-18T05:02:24;8.20;99.90
14248;DHT22;7208;49.826;6.004;2023-02-18T05:04:50;8.20;99.90
14248;DHT22;7208;49.826;6.004;2023-02-18T05:07:15;8.10;99.90
14248;DHT22;7208;49.826;6.004;2023-02-18T05:09:41;8.10;99.90
14248;DHT22;7208;49.826;6.004;2023-02-18T05:12:07;8.10;99.90
14248;DHT22;7208;49.826;6.004;2023-02-18T05:14:33;8.10;99.90
14248;DHT22;7208;49.826;6.004;2023-02-18T05:16:58;8.10;99.90
14248;DHT22;7208;49.826;6.004;2023-02-18T05:19:24;8.10;99.90
14248;DHT22;7208;49.826;6.004;2023-02-18T05:21:50;8.00;99.90
14248;DHT22;7208;49.826;6.004;2023-02-18T05:24:15;8.00;99.90
14248;DHT22;7208;49.826;6.004;2023-02-18T05:26:41;8.00;99.90
14248;DHT22;7208;49.826;6.004;2023-02-18T05:29:07;8.00;99.90
14248;DHT22;7208;49.826;6.004;2023-02-18T05:31:32;8.00;99.90
14248;DHT22;7208;49.826;6.004;2023-02-18T05:33:58;7.90;99.90
14248;DHT22;7208;49.826;6.004;2023-02-18T05:36:24;7.90;99.90
14248;DHT22;7208;49.826;6.004;2023-02-18T05:38:50;7.90;99.90
14248;DHT22;7208;49.826;6.004;2023-02-18T05:41:16;7.90;99.90
14248;DHT22;7208;49.826;6.004;2023-02-18T05:43:41;7.80;99.90
14248;DHT22;7208;49.826;6.004;2023-02-18T05:46:25;7.80;99.90
14248;DHT22;7208;49.826;6.004;2023-02-18T05:48:51;7.80;99.90
14248;DHT22;7208;49.826;6.004;2023-02-18T05:51:17;7.80;99.90
14248;DHT22;7208;49.826;6.004;2023-02-18T05:53:42;7.80;99.90
14248;DHT22;7208;49.826;6.004;2023-02-18T05:56:08;7.80;99.90
14248;DHT22;7208;49.826;6.004;2023-02-18T05:58:34;7.90;99.90
14248;DHT22;7208;49.826;6.004;2023-02-18T06:00:59;7.80;99.90
14248;DHT22;7208;49.826;6.004;2023-02-18T06:03:25;7.80;99.90
14248;DHT22;7208;49.826;6.004;2023-02-18T06:05:51;7.80;99.90
14248;DHT22;7208;49.826;6.004;2023-02-18T06:08:17;7.90;99.90
14248;DHT22;7208;49.826;6.004;2023-02-18T06:10:45;7.90;99.90
14248;DHT22;7208;49.826;6.004;2023-02-18T06:13:10;7.90;99.90
14248;DHT22;7208;49.826;6.004;2023-02-18T06:15:37;7.90;99.90
14248;DHT22;7208;49.826;6.004;2023-02-18T06:18:03;7.90;99.90
14248;DHT22;7208;49.826;6.004;2023-02-18T06:20:29;7.90;99.90
14248;DHT22;7208;49.826;6.004;2023-02-18T06:22:55;7.90;99.90
14248;DHT22;7208;49.826;6.004;2023-02-18T06:25:20;7.90;99.90
14248;DHT22;7208;49.826;6.004;2023-02-18T06:27:46;7.90;99.90
14248;DHT22;7208;49.826;6.004;2023-02-18T06:30:12;8.00;99.90
14248;DHT22;7208;49.826;6.004;2023-02-18T06:32:38;8.00;99.90
14248;DHT22;7208;49.826;6.004;2023-02-18T06:35:04;8.00;99.90
14248;DHT22;7208;49.826;6.004;2023-02-18T06:37:30;8.00;99.90
14248;DHT22;7208;49.826;6.004;2023-02-18T06:39:56;8.00;99.90
14248;DHT22;7208;49.826;6.004;2023-02-18T06:42:22;8.00;99.90
14248;DHT22;7208;49.826;6.004;2023-02-18T06:44:47;8.00;99.90
14248;DHT22;7208;49.826;6.004;2023-02-18T06:47:13;7.90;99.90
14248;DHT22;7208;49.826;6.004;2023-02-18T06:49:39;7.90;99.90
14248;DHT22;7208;49.826;6.004;2023-02-18T06:52:04;7.90;99.90
14248;DHT22;7208;49.826;6.004;2023-02-18T06:54:31;7.90;99.90
14248;DHT22;7208;49.826;6.004;2023-02-18T06:56:57;7.90;99.90
14248;DHT22;7208;49.826;6.004;2023-02-18T06:59:23;7.90;99.90
14248;DHT22;7208;49.826;6.004;2023-02-18T07:01:48;7.90;99.90
14248;DHT22;7208;49.826;6.004;2023-02-18T07:04:14;7.90;99.90
14248;DHT22;7208;49.826;6.004;2023-02-18T07:06:40;7.80;99.90
14248;DHT22;7208;49.826;6.004;2023-02-18T07:09:05;7.80;99.90
14248;DHT22;7208;49.826;6.004;2023-02-18T07:11:31;7.80;99.90
14248;DHT22;7208;49.826;6.004;2023-02-18T07:13:57;7.90;99.90
14248;DHT22;7208;49.826;6.004;2023-02-18T07:16:23;7.80;99.90
14248;DHT22;7208;49.826;6.004;2023-02-18T07:18:48;7.90;99.90
14248;DHT22;7208;49.826;6.004;2023-02-18T07:21:14;8.00;99.90
14248;DHT22;7208;49.826;6.004;2023-02-18T07:23:40;8.00;99.90
14248;DHT22;7208;49.826;6.004;2023-02-18T07:26:07;8.10;99.90
14248;DHT22;7208;49.826;6.004;2023-02-18T07:28:33;8.10;99.90
14248;DHT22;7208;49.826;6.004;2023-02-18T07:30:59;8.10;99.90
14248;DHT22;7208;49.826;6.004;2023-02-18T07:33:25;8.10;99.90
14248;DHT22;7208;49.826;6.004;2023-02-18T07:35:54;8.00;99.90
14248;DHT22;7208;49.826;6.004;2023-02-18T07:38:21;8.00;99.90
14248;DHT22;7208;49.826;6.004;2023-02-18T07:40:47;8.00;99.90
14248;DHT22;7208;49.826;6.004;2023-02-18T07:43:12;8.00;99.90
14248;DHT22;7208;49.826;6.004;2023-02-18T07:45:38;8.00;99.90
14248;DHT22;7208;49.826;6.004;2023-02-18T07:48:04;8.00;99.90
14248;DHT22;7208;49.826;6.004;2023-02-18T07:50:30;8.00;99.90
14248;DHT22;7208;49.826;6.004;2023-02-18T07:53:00;8.00;99.90
14248;DHT22;7208;49.826;6.004;2023-02-18T07:55:25;8.10;99.90
14248;DHT22;7208;49.826;6.004;2023-02-18T07:58:15;8.10;99.90
14248;DHT22;7208;49.826;6.004;2023-02-18T08:00:41;8.10;99.90
14248;DHT22;7208;49.826;6.004;2023-02-18T08:03:06;8.10;99.90
14248;DHT22;7208;49.826;6.004;2023-02-18T08:05:33;8.10;99.90
14248;DHT22;7208;49.826;6.004;2023-02-18T08:07:59;8.20;99.90
14248;DHT22;7208;49.826;6.004;2023-02-18T08:10:25;8.30;99.90
14248;DHT22;7208;49.826;6.004;2023-02-18T08:12:50;8.30;99.90
14248;DHT22;7208;49.826;6.004;2023-02-18T08:15:16;8.30;99.90
14248;DHT22;7208;49.826;6.004;2023-02-18T08:17:42;8.30;99.90
14248;DHT22;7208;49.826;6.004;2023-02-18T08:20:08;8.30;99.90
14248;DHT22;7208;49.826;6.004;2023-02-18T08:22:35;8.30;99.90
14248;DHT22;7208;49.826;6.004;2023-02-18T08:25:00;8.30;99.90
14248;DHT22;7208;49.826;6.004;2023-02-18T08:27:27;8.20;99.90
14248;DHT22;7208;49.826;6.004;2023-02-18T08:29:53;8.30;99.90
